Time;durP1;ratioP1;P1;durP2;ratioP2;P2;SDS_P1;SDS_P2;PMS_P1;PMS_P2;Temp;Humidity;BMP_temperature;BMP_pressure;BME280_temperature;BME280_humidity;BME280_pressure;Samples;Min_cycle;Max_cycle;Signal;HPM_P1;HPM_P2
2022/09/16 00:01:37;;;;;;;4.20;2.00;;;;;;;;;;5014223;28;20290;-66
2022/09/16 00:04:02;;;;;;;2.80;1.87;;;;;;;;;;5012933;28;20218;-66
2022/09/16 00:06:29;;;;;;;10.37;2.30;;;;;;;;;;5014309;28;20176;-66
2022/09/16 00:08:56;;;;;;;5.67;2.10;;;;;;;;;;5014120;28;20290;-66
2022/09/16 00:11:22;;;;;;;8.27;2.03;;;;;;;;;;5013262;28;20183;-66
2022/09/16 00:13:48;;;;;;;4.93;2.10;;;;;;;;;;5013133;28;20237;-66
2022/09/16 00:16:22;;;;;;;10.47;2.30;;;;;;;;;;5014013;28;20180;-66
2022/09/16 00:18:52;;;;;;;3.27;2.07;;;;;;;;;;5013928;28;20698;-65
2022/09/16 00:21:18;;;;;;;7.97;2.13;;;;;;;;;;5012582;28;20180;-66
2022/09/16 00:23:44;;;;;;;4.87;2.17;;;;;;;;;;5013959;28;20226;-66
2022/09/16 00:26:10;;;;;;;8.10;2.40;;;;;;;;;;5014314;28;20183;-67
2022/09/16 00:28:36;;;;;;;7.40;2.10;;;;;;;;;;5013808;28;20196;-65
2022/09/16 00:31:02;;;;;;;7.53;2.13;;;;;;;;;;5015324;28;20171;-67
2022/09/16 00:33:28;;;;;;;7.27;2.00;;;;;;;;;;5012532;28;20194;-66
2022/09/16 00:36:04;;;;;;;10.40;1.93;;;;;;;;;;5012643;28;20664;-66
2022/09/16 00:38:30;;;;;;;5.60;2.40;;;;;;;;;;5012433;28;20683;-66
2022/09/16 00:40:56;;;;;;;8.67;2.17;;;;;;;;;;5013750;28;20234;-66
2022/09/16 00:43:22;;;;;;;5.63;1.93;;;;;;;;;;5012258;28;20266;-66
2022/09/16 00:45:54;;;;;;;8.80;2.13;;;;;;;;;;5011615;28;20186;-65
2022/09/16 00:48:22;;;;;;;9.03;1.90;;;;;;;;;;5012266;28;20204;-66
2022/09/16 00:50:50;;;;;;;6.20;1.90;;;;;;;;;;5013751;28;20179;-67
2022/09/16 00:53:18;;;;;;;5.87;1.70;;;;;;;;;;5012289;28;20242;-66
2022/09/16 00:55:44;;;;;;;5.50;2.10;;;;;;;;;;5012199;28;20206;-66
2022/09/16 00:58:14;;;;;;;4.07;1.63;;;;;;;;;;5013307;28;20286;-66
2022/09/16 01:00:42;;;;;;;5.70;1.77;;;;;;;;;;5013589;28;20167;-67
2022/09/16 01:03:08;;;;;;;3.50;1.50;;;;;;;;;;5013356;28;20681;-67
2022/09/16 01:05:34;;;;;;;6.47;1.90;;;;;;;;;;5012021;28;20180;-66
2022/09/16 01:08:00;;;;;;;6.67;1.77;;;;;;;;;;5012041;28;20241;-64
2022/09/16 01:10:26;;;;;;;5.60;1.67;;;;;;;;;;5013412;28;20186;-66
2022/09/16 01:12:56;;;;;;;9.17;1.83;;;;;;;;;;5012190;28;20190;-66
2022/09/16 01:15:25;;;;;;;6.37;1.97;;;;;;;;;;5013283;28;20528;-64
2022/09/16 01:17:51;;;;;;;4.53;1.70;;;;;;;;;;5013290;28;20676;-66
2022/09/16 01:20:30;;;;;;;6.03;1.80;;;;;;;;;;5013458;28;20193;-66
2022/09/16 01:23:14;;;;;;;5.27;1.93;;;;;;;;;;5013266;28;20275;-66
2022/09/16 01:25:46;;;;;;;4.63;1.87;;;;;;;;;;5013154;28;20176;-64
2022/09/16 01:28:32;;;;;;;6.43;2.20;;;;;;;;;;5013257;28;20274;-65
2022/09/16 01:31:02;;;;;;;4.00;1.63;;;;;;;;;;5011941;28;20226;-66
2022/09/16 01:33:52;;;;;;;3.93;1.70;;;;;;;;;;5013412;28;20187;-65
2022/09/16 01:36:30;;;;;;;4.27;1.60;;;;;;;;;;5011830;28;20180;-65
2022/09/16 01:39:03;;;;;;;5.00;1.77;;;;;;;;;;5012975;28;20253;-65
2022/09/16 01:41:29;;;;;;;6.87;2.10;;;;;;;;;;5013490;28;20199;-66
2022/09/16 01:44:10;;;;;;;7.40;2.13;;;;;;;;;;5012912;28;20226;-66
2022/09/16 01:46:47;;;;;;;3.40;1.60;;;;;;;;;;5011694;28;20172;-65
2022/09/16 01:49:30;;;;;;;7.17;1.70;;;;;;;;;;5011540;28;20680;-65
2022/09/16 01:52:05;;;;;;;4.80;1.77;;;;;;;;;;5013113;28;20163;-65
2022/09/16 01:54:38;;;;;;;5.30;1.90;;;;;;;;;;5012870;28;20168;-65
2022/09/16 01:57:10;;;;;;;8.97;1.90;;;;;;;;;;5014402;28;20164;-65
2022/09/16 01:59:42;;;;;;;4.90;2.20;;;;;;;;;;5015677;28;20234;-66
2022/09/16 02:02:13;;;;;;;6.07;1.80;;;;;;;;;;5016550;28;20208;-66
2022/09/16 02:04:45;;;;;;;3.03;1.70;;;;;;;;;;5016543;28;20637;-65
2022/09/16 02:07:12;;;;;;;5.13;2.67;;;;;;;;;;5016273;28;20263;-65
2022/09/16 02:09:41;;;;;;;4.07;1.87;;;;;;;;;;5015056;28;20190;-65
2022/09/16 02:12:09;;;;;;;6.37;2.03;;;;;;;;;;5016581;28;20180;-65
2022/09/16 02:14:38;;;;;;;8.63;2.23;;;;;;;;;;5016432;28;20191;-65
2022/09/16 02:17:08;;;;;;;5.53;2.07;;;;;;;;;;5016103;28;20637;-65
2022/09/16 02:19:55;;;;;;;4.77;2.23;;;;;;;;;;5016046;28;20230;-65
2022/09/16 02:22:25;;;;;;;6.20;1.97;;;;;;;;;;5015852;28;20211;-66
2022/09/16 02:24:51;;;;;;;5.10;2.00;;;;;;;;;;5014749;28;20180;-66
2022/09/16 02:27:19;;;;;;;6.70;2.50;;;;;;;;;;5015815;28;20227;-65
2022/09/16 02:29:57;;;;;;;5.33;1.80;;;;;;;;;;5014586;28;20207;-66
2022/09/16 02:32:25;;;;;;;6.47;2.27;;;;;;;;;;5015873;28;20187;-65
2022/09/16 02:34:53;;;;;;;6.97;2.20;;;;;;;;;;5015821;28;20215;-65
2022/09/16 02:37:42;;;;;;;6.57;2.30;;;;;;;;;;5014396;28;20207;-65
2022/09/16 02:40:15;;;;;;;4.57;1.90;;;;;;;;;;4987520;28;20202;-66
2022/09/16 02:42:41;;;;;;;7.47;2.10;;;;;;;;;;5014164;28;20242;-65
2022/09/16 02:45:08;;;;;;;2.53;1.60;;;;;;;;;;5014435;28;20208;-66
2022/09/16 02:47:46;;;;;;;6.03;2.20;;;;;;;;;;5015471;28;20215;-66
2022/09/16 02:50:15;;;;;;;7.70;2.50;;;;;;;;;;5014276;28;20180;-65
2022/09/16 02:52:47;;;;;;;7.90;2.40;;;;;;;;;;5015510;28;20637;-65
2022/09/16 02:55:25;;;;;;;7.60;2.17;;;;;;;;;;5014190;28;20195;-65
2022/09/16 02:57:51;;;;;;;9.10;2.40;;;;;;;;;;5014218;28;20203;-65
2022/09/16 03:00:17;;;;;;;5.80;2.50;;;;;;;;;;5014100;28;20187;-66
2022/09/16 03:02:43;;;;;;;10.20;2.00;;;;;;;;;;5015351;28;20294;-65
2022/09/16 03:05:09;;;;;;;5.87;2.10;;;;;;;;;;5014058;28;20180;-66
2022/09/16 03:07:35;;;;;;;4.93;2.13;;;;;;;;;;5014940;28;20215;-65
2022/09/16 03:10:01;;;;;;;7.03;2.33;;;;;;;;;;5015066;28;20168;-65
2022/09/16 03:12:46;;;;;;;4.27;2.70;;;;;;;;;;5015506;28;20266;-65
2022/09/16 03:15:15;;;;;;;8.47;2.30;;;;;;;;;;5013739;28;20184;-65
2022/09/16 03:18:04;;;;;;;6.87;2.20;;;;;;;;;;5013834;28;20199;-65
2022/09/16 03:20:39;;;;;;;4.90;2.17;;;;;;;;;;4986954;28;20667;-65
2022/09/16 03:23:27;;;;;;;6.60;2.60;;;;;;;;;;5014799;28;20684;-66
2022/09/16 03:26:23;;;;;;;4.47;2.17;;;;;;;;;;5014957;28;20625;-66
2022/09/16 03:28:57;;;;;;;6.13;2.27;;;;;;;;;;5006325;28;20680;-66
2022/09/16 03:31:31;;;;;;;6.23;2.70;;;;;;;;;;5013466;28;20183;-66
2022/09/16 03:34:03;;;;;;;6.40;2.20;;;;;;;;;;5014721;28;20164;-66
2022/09/16 03:36:32;;;;;;;4.73;2.50;;;;;;;;;;5014675;28;20168;-66
2022/09/16 03:38:59;;;;;;;8.97;3.10;;;;;;;;;;5014795;28;20192;-66
2022/09/16 03:41:27;;;;;;;7.23;2.43;;;;;;;;;;5014362;28;20179;-66
2022/09/16 03:43:53;;;;;;;4.63;2.43;;;;;;;;;;5015391;28;20176;-73
2022/09/16 03:46:19;;;;;;;6.03;2.50;;;;;;;;;;5016683;28;20182;-68
2022/09/16 03:48:45;;;;;;;5.17;2.53;;;;;;;;;;5014506;28;20200;-65
2022/09/16 03:51:11;;;;;;;4.43;2.30;;;;;;;;;;5015112;28;20190;-66
2022/09/16 03:53:37;;;;;;;11.63;3.13;;;;;;;;;;5018927;28;20171;-65
2022/09/16 03:56:03;;;;;;;4.97;2.50;;;;;;;;;;5014796;28;20546;-66
2022/09/16 03:58:29;;;;;;;5.80;2.37;;;;;;;;;;5013027;28;20323;-66
2022/09/16 04:00:55;;;;;;;6.23;2.50;;;;;;;;;;5014353;28;20176;-66
2022/09/16 04:03:21;;;;;;;8.93;2.57;;;;;;;;;;5012908;28;20265;-66
2022/09/16 04:05:52;;;;;;;8.53;2.80;;;;;;;;;;5012774;28;20184;-67
2022/09/16 04:08:18;;;;;;;6.40;2.47;;;;;;;;;;5012546;28;20223;-66
2022/09/16 04:10:52;;;;;;;5.67;2.77;;;;;;;;;;5013950;28;20720;-66
2022/09/16 04:13:18;;;;;;;7.57;2.60;;;;;;;;;;5012826;28;20211;-66
2022/09/16 04:15:44;;;;;;;5.60;2.53;;;;;;;;;;5014354;28;20230;-67
2022/09/16 04:18:10;;;;;;;6.93;2.57;;;;;;;;;;5012696;28;20290;-66
2022/09/16 04:20:36;;;;;;;9.70;2.87;;;;;;;;;;5012570;28;20695;-66
2022/09/16 04:23:02;;;;;;;7.00;2.43;;;;;;;;;;5012826;28;20211;-66
2022/09/16 04:25:29;;;;;;;8.77;2.70;;;;;;;;;;5014634;28;20257;-66
2022/09/16 04:27:55;;;;;;;10.90;2.77;;;;;;;;;;5012472;28;20207;-66
2022/09/16 04:30:21;;;;;;;6.37;2.57;;;;;;;;;;5014282;28;20186;-67
2022/09/16 04:32:47;;;;;;;7.53;2.43;;;;;;;;;;5012427;28;20215;-66
2022/09/16 04:35:13;;;;;;;5.50;2.50;;;;;;;;;;5012511;28;20226;-66
2022/09/16 04:37:38;;;;;;;6.90;2.40;;;;;;;;;;5013490;28;20210;-66
2022/09/16 04:40:05;;;;;;;9.57;2.43;;;;;;;;;;5013907;28;20180;-66
2022/09/16 04:42:31;;;;;;;6.47;2.20;;;;;;;;;;5013478;28;20210;-66
2022/09/16 04:44:57;;;;;;;11.57;3.43;;;;;;;;;;5013438;28;20183;-66
2022/09/16 04:47:22;;;;;;;8.87;2.87;;;;;;;;;;5013646;28;20195;-66
2022/09/16 04:49:48;;;;;;;5.30;2.60;;;;;;;;;;5013603;28;20258;-66
2022/09/16 04:52:14;;;;;;;7.37;2.60;;;;;;;;;;5013723;28;20647;-66
2022/09/16 04:54:40;;;;;;;7.57;2.87;;;;;;;;;;5013315;28;20690;-66
2022/09/16 04:57:07;;;;;;;5.10;2.40;;;;;;;;;;5013574;28;20183;-66
2022/09/16 04:59:33;;;;;;;8.73;2.93;;;;;;;;;;5013307;28;20191;-66
2022/09/16 05:02:00;;;;;;;6.33;2.80;;;;;;;;;;5013167;28;20257;-66
2022/09/16 05:04:25;;;;;;;5.63;2.67;;;;;;;;;;5011894;28;20215;-66
2022/09/16 05:06:52;;;;;;;4.83;2.73;;;;;;;;;;5013187;28;20215;-66
2022/09/16 05:09:20;;;;;;;9.57;3.40;;;;;;;;;;5013097;28;20298;-66
2022/09/16 05:11:46;;;;;;;5.60;3.30;;;;;;;;;;5013262;28;20172;-66
2022/09/16 05:14:14;;;;;;;11.83;3.50;;;;;;;;;;5013222;28;20180;-66
2022/09/16 05:16:40;;;;;;;7.33;3.10;;;;;;;;;;5012045;28;20194;-66
2022/09/16 05:19:06;;;;;;;8.53;3.70;;;;;;;;;;5011861;28;20195;-66
2022/09/16 05:21:34;;;;;;;12.23;4.07;;;;;;;;;;5013425;28;20211;-66
2022/09/16 05:24:01;;;;;;;17.83;4.77;;;;;;;;;;5011996;28;20663;-66
2022/09/16 05:26:30;;;;;;;15.10;4.93;;;;;;;;;;5013385;28;20684;-66
2022/09/16 05:28:59;;;;;;;12.53;4.83;;;;;;;;;;5013400;28;20570;-66
2022/09/16 05:31:32;;;;;;;16.30;4.17;;;;;;;;;;5013534;28;20176;-66
2022/09/16 05:33:59;;;;;;;13.17;4.23;;;;;;;;;;5017137;28;20180;-66
2022/09/16 05:36:25;;;;;;;11.87;4.00;;;;;;;;;;5016981;28;20182;-66
2022/09/16 05:38:52;;;;;;;12.43;3.90;;;;;;;;;;5015537;28;20196;-66
2022/09/16 05:41:18;;;;;;;9.27;3.70;;;;;;;;;;5016707;28;20172;-66
2022/09/16 05:43:43;;;;;;;8.20;3.70;;;;;;;;;;5016741;28;20226;-66
2022/09/16 05:46:12;;;;;;;11.63;4.10;;;;;;;;;;5016949;28;20593;-66
2022/09/16 05:48:38;;;;;;;7.67;3.60;;;;;;;;;;5016691;28;20215;-66
2022/09/16 05:51:05;;;;;;;9.10;4.20;;;;;;;;;;5016771;28;20595;-65
2022/09/16 05:53:32;;;;;;;8.33;4.20;;;;;;;;;;5015743;28;20176;-65
2022/09/16 05:55:59;;;;;;;8.70;3.57;;;;;;;;;;5017063;28;20604;-66
2022/09/16 05:58:26;;;;;;;7.13;3.73;;;;;;;;;;5016933;28;20250;-66
2022/09/16 06:00:58;;;;;;;8.20;3.60;;;;;;;;;;5015649;28;20187;-67
2022/09/16 06:03:24;;;;;;;6.37;3.20;;;;;;;;;;5016901;28;20602;-66
2022/09/16 06:05:50;;;;;;;11.37;3.93;;;;;;;;;;5017100;28;20180;-66
2022/09/16 06:08:16;;;;;;;6.37;3.73;;;;;;;;;;5016437;28;20207;-66
2022/09/16 06:10:42;;;;;;;8.33;3.40;;;;;;;;;;5016323;28;20526;-65
2022/09/16 06:13:08;;;;;;;12.33;3.77;;;;;;;;;;5016772;28;20585;-67
2022/09/16 06:15:34;;;;;;;9.87;3.50;;;;;;;;;;5016608;28;20180;-66
2022/09/16 06:18:01;;;;;;;6.77;2.80;;;;;;;;;;5016083;28;20696;-66
2022/09/16 06:20:27;;;;;;;6.87;3.40;;;;;;;;;;5016257;28;20183;-65
2022/09/16 06:22:53;;;;;;;5.53;3.60;;;;;;;;;;5015989;28;20216;-66
2022/09/16 06:25:19;;;;;;;11.00;4.50;;;;;;;;;;5014800;28;20176;-65
2022/09/16 06:27:45;;;;;;;9.30;3.57;;;;;;;;;;5014641;28;20253;-65
2022/09/16 06:30:11;;;;;;;6.63;3.70;;;;;;;;;;5016117;28;20184;-66
2022/09/16 06:32:38;;;;;;;5.90;3.50;;;;;;;;;;5041796;23;20761;-68
2022/09/16 06:35:04;;;;;;;7.40;3.10;;;;;;;;;;5015907;28;20198;-68
2022/09/16 06:37:30;;;;;;;5.37;2.93;;;;;;;;;;5014783;28;20175;-68
2022/09/16 06:39:55;;;;;;;5.07;2.87;;;;;;;;;;5016095;28;20221;-68
2022/09/16 06:42:21;;;;;;;8.90;3.53;;;;;;;;;;5015752;28;20295;-68
2022/09/16 06:44:47;;;;;;;7.73;3.63;;;;;;;;;;5013297;28;20187;-69
2022/09/16 06:47:13;;;;;;;7.20;3.13;;;;;;;;;;5015651;28;20669;-68
2022/09/16 06:49:42;;;;;;;6.37;3.47;;;;;;;;;;5016029;28;20187;-68
2022/09/16 06:52:10;;;;;;;5.60;3.03;;;;;;;;;;5015510;28;20200;-68
2022/09/16 06:54:36;;;;;;;7.17;3.00;;;;;;;;;;5014275;28;20180;-68
2022/09/16 06:57:02;;;;;;;7.80;3.10;;;;;;;;;;5016147;28;20184;-68
2022/09/16 06:59:28;;;;;;;6.20;3.00;;;;;;;;;;5015579;28;20259;-68
2022/09/16 07:01:54;;;;;;;7.27;3.20;;;;;;;;;;5013875;28;20208;-68
2022/09/16 07:04:20;;;;;;;7.13;3.07;;;;;;;;;;5013950;28;20175;-68
2022/09/16 07:06:46;;;;;;;5.67;2.87;;;;;;;;;;5015220;28;20180;-68
2022/09/16 07:09:12;;;;;;;5.50;2.73;;;;;;;;;;5013858;28;20180;-68
2022/09/16 07:11:39;;;;;;;8.40;3.00;;;;;;;;;;5015267;28;20241;-68
2022/09/16 07:14:05;;;;;;;4.50;2.60;;;;;;;;;;5014965;28;20254;-67
2022/09/16 07:16:31;;;;;;;11.67;2.90;;;;;;;;;;5015031;28;20271;-68
2022/09/16 07:18:58;;;;;;;4.40;2.63;;;;;;;;;;5015063;28;20183;-68
2022/09/16 07:21:27;;;;;;;9.13;3.20;;;;;;;;;;5015043;28;20604;-67
2022/09/16 07:23:54;;;;;;;7.07;3.30;;;;;;;;;;5015031;28;20176;-68
2022/09/16 07:26:21;;;;;;;7.03;3.30;;;;;;;;;;5013768;28;20214;-68
2022/09/16 07:28:48;;;;;;;6.43;2.97;;;;;;;;;;5013561;28;20237;-68
2022/09/16 07:31:15;;;;;;;4.80;2.60;;;;;;;;;;5013550;28;20176;-68
2022/09/16 07:33:42;;;;;;;5.67;3.10;;;;;;;;;;5014617;28;20195;-68
2022/09/16 07:36:09;;;;;;;8.50;3.03;;;;;;;;;;5014596;28;20182;-68
2022/09/16 07:38:35;;;;;;;5.60;3.10;;;;;;;;;;5014936;28;20191;-67
2022/09/16 07:41:08;;;;;;;4.43;2.90;;;;;;;;;;5014516;28;20585;-68
2022/09/16 07:43:34;;;;;;;6.23;3.00;;;;;;;;;;5014312;28;20203;-67
2022/09/16 07:46:00;;;;;;;8.40;2.63;;;;;;;;;;5014392;28;20242;-68
2022/09/16 07:48:29;;;;;;;6.73;3.30;;;;;;;;;;5014654;28;20191;-68
2022/09/16 07:50:56;;;;;;;5.97;2.63;;;;;;;;;;5014300;28;20175;-68
2022/09/16 07:53:22;;;;;;;4.07;2.30;;;;;;;;;;5012953;28;20212;-68
2022/09/16 07:55:48;;;;;;;6.80;2.20;;;;;;;;;;5013889;28;20187;-68
2022/09/16 07:58:14;;;;;;;6.60;2.07;;;;;;;;;;5014239;28;20180;-68
2022/09/16 08:00:42;;;;;;;5.00;2.23;;;;;;;;;;5012825;28;20191;-68
2022/09/16 08:03:08;;;;;;;5.50;2.10;;;;;;;;;;5013959;28;20210;-68
2022/09/16 08:05:35;;;;;;;2.90;1.50;;;;;;;;;;5012812;28;20184;-68
2022/09/16 08:08:01;;;;;;;5.17;2.03;;;;;;;;;;5014016;28;20202;-68
2022/09/16 08:10:27;;;;;;;4.17;1.90;;;;;;;;;;5012698;28;20645;-68
2022/09/16 08:12:53;;;;;;;3.33;1.70;;;;;;;;;;5012638;28;20211;-68
2022/09/16 08:15:19;;;;;;;3.77;1.90;;;;;;;;;;5014142;28;20663;-68
2022/09/16 08:17:45;;;;;;;4.33;1.87;;;;;;;;;;5014116;28;20593;-68
2022/09/16 08:20:11;;;;;;;4.43;2.27;;;;;;;;;;5013884;28;20241;-68
2022/09/16 08:22:37;;;;;;;2.67;1.60;;;;;;;;;;5013787;28;20214;-68
2022/09/16 08:25:03;;;;;;;3.03;1.60;;;;;;;;;;5013760;28;20176;-68
2022/09/16 08:27:29;;;;;;;4.20;1.90;;;;;;;;;;5012726;28;20550;-67
2022/09/16 08:29:55;;;;;;;5.07;2.10;;;;;;;;;;5013674;28;20229;-67
2022/09/16 08:32:21;;;;;;;4.73;2.07;;;;;;;;;;5013429;28;20706;-68
2022/09/16 08:34:48;;;;;;;5.10;1.93;;;;;;;;;;5014159;28;20229;-68
2022/09/16 08:37:13;;;;;;;4.50;1.50;;;;;;;;;;5013679;28;20207;-67
2022/09/16 08:39:39;;;;;;;4.93;1.80;;;;;;;;;;5013604;28;20738;-67
2022/09/16 08:42:08;;;;;;;3.87;1.53;;;;;;;;;;5013414;28;20226;-67
2022/09/16 08:44:41;;;;;;;5.33;1.90;;;;;;;;;;5012169;28;20191;-67
2022/09/16 08:47:17;;;;;;;4.67;1.80;;;;;;;;;;5014285;28;20571;-67
2022/09/16 08:49:44;;;;;;;3.87;1.70;;;;;;;;;;5013722;28;20631;-68
2022/09/16 08:52:17;;;;;;;5.00;1.60;;;;;;;;;;5013359;28;20738;-67
2022/09/16 08:54:49;;;;;;;5.57;1.63;;;;;;;;;;5012150;28;20186;-68
2022/09/16 08:57:22;;;;;;;3.30;1.73;;;;;;;;;;5013418;28;20298;-68
2022/09/16 09:00:00;;;;;;;6.77;1.60;;;;;;;;;;5012125;28;20179;-67
2022/09/16 09:02:35;;;;;;;3.10;1.60;;;;;;;;;;5013286;28;20694;-68
2022/09/16 09:05:02;;;;;;;5.00;1.57;;;;;;;;;;5013317;28;20179;-68
2022/09/16 09:07:40;;;;;;;3.97;1.70;;;;;;;;;;5015104;28;20183;-68
2022/09/16 09:10:24;;;;;;;5.30;1.90;;;;;;;;;;5017639;28;20168;-68
2022/09/16 09:12:56;;;;;;;10.43;1.90;;;;;;;;;;5017295;28;20203;-68
2022/09/16 09:15:29;;;;;;;7.73;1.60;;;;;;;;;;5015856;28;20191;-68
2022/09/16 09:17:58;;;;;;;3.50;1.30;;;;;;;;;;5015863;28;20186;-68
2022/09/16 09:20:33;;;;;;;3.40;1.50;;;;;;;;;;5017084;28;20188;-68
2022/09/16 09:23:19;;;;;;;4.77;1.60;;;;;;;;;;5015465;28;20207;-68
2022/09/16 09:25:51;;;;;;;5.87;1.63;;;;;;;;;;5017274;28;20188;-68
2022/09/16 09:28:23;;;;;;;4.63;1.50;;;;;;;;;;5017247;28;20192;-67
2022/09/16 09:30:55;;;;;;;4.80;1.20;;;;;;;;;;5016901;28;20172;-68
2022/09/16 09:33:26;;;;;;;4.20;1.47;;;;;;;;;;5017000;28;20227;-68
2022/09/16 09:36:04;;;;;;;8.00;1.40;;;;;;;;;;5016944;28;20211;-68
2022/09/16 09:38:46;;;;;;;6.00;1.60;;;;;;;;;;5017214;28;20237;-68
2022/09/16 09:41:14;;;;;;;2.93;1.43;;;;;;;;;;5015578;28;20188;-68
2022/09/16 09:43:46;;;;;;;4.93;1.77;;;;;;;;;;5016723;28;20212;-68
2022/09/16 09:46:12;;;;;;;2.80;1.40;;;;;;;;;;5015689;28;20314;-68
2022/09/16 09:48:41;;;;;;;4.70;1.67;;;;;;;;;;5016952;28;20648;-68
2022/09/16 09:51:36;;;;;;;3.17;1.60;;;;;;;;;;5015446;28;20234;-68
2022/09/16 09:54:19;;;;;;;4.80;1.60;;;;;;;;;;5002962;28;20192;-68
2022/09/16 09:56:45;;;;;;;6.77;1.50;;;;;;;;;;5017055;28;20171;-68
2022/09/16 09:59:14;;;;;;;9.83;2.07;;;;;;;;;;5016603;28;20187;-68
2022/09/16 10:01:40;;;;;;;5.80;1.60;;;;;;;;;;5015136;28;20294;-68
2022/09/16 10:04:14;;;;;;;5.47;1.60;;;;;;;;;;5016566;28;20274;-68
2022/09/16 10:06:41;;;;;;;9.87;1.40;;;;;;;;;;5016755;28;20686;-68
2022/09/16 10:09:12;;;;;;;3.27;1.47;;;;;;;;;;5015141;28;20179;-68
2022/09/16 10:11:45;;;;;;;6.17;1.43;;;;;;;;;;5016338;28;20200;-68
2022/09/16 10:14:22;;;;;;;7.63;1.77;;;;;;;;;;5016892;28;20223;-68
2022/09/16 10:16:50;;;;;;;7.33;1.60;;;;;;;;;;5016670;28;20195;-67
2022/09/16 10:19:21;;;;;;;6.43;1.87;;;;;;;;;;5014845;28;20184;-68
2022/09/16 10:21:52;;;;;;;6.10;2.13;;;;;;;;;;5014853;28;20269;-67
2022/09/16 10:24:30;;;;;;;3.27;1.27;;;;;;;;;;5016662;28;20171;-68
2022/09/16 10:26:57;;;;;;;2.83;1.47;;;;;;;;;;5016158;28;20190;-68
2022/09/16 10:29:23;;;;;;;4.73;1.83;;;;;;;;;;5016130;28;20180;-68
2022/09/16 10:31:49;;;;;;;3.43;1.30;;;;;;;;;;5014353;28;20735;-68
2022/09/16 10:34:30;;;;;;;3.07;1.40;;;;;;;;;;5016095;28;20555;-68
2022/09/16 10:37:02;;;;;;;4.93;1.33;;;;;;;;;;5015736;28;20654;-68
2022/09/16 10:39:29;;;;;;;5.57;1.73;;;;;;;;;;5015679;28;20263;-68
2022/09/16 10:41:55;;;;;;;4.10;1.43;;;;;;;;;;5014188;28;20211;-68
2022/09/16 10:44:26;;;;;;;7.03;1.93;;;;;;;;;;5015521;28;20548;-68
2022/09/16 10:46:54;;;;;;;2.90;1.23;;;;;;;;;;5014344;28;20180;-67
2022/09/16 10:49:27;;;;;;;7.10;2.30;;;;;;;;;;5015985;28;20207;-68
2022/09/16 10:51:54;;;;;;;5.73;2.10;;;;;;;;;;5015629;28;20262;-67
2022/09/16 10:54:24;;;;;;;5.70;1.57;;;;;;;;;;5014180;28;20239;-68
2022/09/16 10:56:51;;;;;;;4.67;1.73;;;;;;;;;;5015386;28;20708;-68
2022/09/16 10:59:17;;;;;;;3.77;1.43;;;;;;;;;;5015312;28;20560;-68
2022/09/16 11:01:48;;;;;;;7.80;1.80;;;;;;;;;;5015309;28;20214;-68
2022/09/16 11:04:33;;;;;;;4.60;1.90;;;;;;;;;;5015676;28;20640;-68
2022/09/16 11:07:08;;;;;;;6.63;1.90;;;;;;;;;;5015174;28;20558;-68
2022/09/16 11:09:49;;;;;;;7.07;1.47;;;;;;;;;;5015285;28;20191;-67
2022/09/16 11:12:28;;;;;;;5.07;1.70;;;;;;;;;;5015000;28;20199;-67
2022/09/16 11:15:08;;;;;;;4.27;1.47;;;;;;;;;;5015207;28;20234;-67
2022/09/16 11:17:44;;;;;;;5.20;1.20;;;;;;;;;;5015026;28;20186;-68
2022/09/16 11:20:29;;;;;;;8.83;2.70;;;;;;;;;;5013710;28;20182;-68
2022/09/16 11:23:02;;;;;;;3.93;1.30;;;;;;;;;;5014848;28;20202;-68
2022/09/16 11:25:43;;;;;;;6.10;1.70;;;;;;;;;;5015219;28;20529;-67
2022/09/16 11:28:27;;;;;;;3.90;1.50;;;;;;;;;;5015261;28;20168;-67
2022/09/16 11:31:14;;;;;;;3.57;1.30;;;;;;;;;;5012966;28;20238;-68
2022/09/16 11:33:40;;;;;;;2.73;1.23;;;;;;;;;;5003172;28;20227;-67
2022/09/16 11:36:20;;;;;;;4.30;1.40;;;;;;;;;;5014897;28;20183;-67
2022/09/16 11:38:51;;;;;;;5.83;1.70;;;;;;;;;;5014886;28;20160;-67
2022/09/16 11:41:32;;;;;;;4.13;1.53;;;;;;;;;;5013129;28;20176;-67
2022/09/16 11:44:23;;;;;;;4.00;1.40;;;;;;;;;;5014447;28;20534;-67
2022/09/16 11:46:52;;;;;;;3.97;1.37;;;;;;;;;;5014785;28;20164;-67
2022/09/16 11:49:30;;;;;;;8.03;2.40;;;;;;;;;;5014422;28;20204;-67
2022/09/16 11:52:08;;;;;;;5.07;1.77;;;;;;;;;;5013040;28;20337;-67
2022/09/16 11:54:52;;;;;;;7.23;2.13;;;;;;;;;;5014609;28;20164;-67
2022/09/16 11:57:21;;;;;;;3.30;1.70;;;;;;;;;;5014544;28;20183;-67
2022/09/16 11:59:59;;;;;;;4.03;1.80;;;;;;;;;;5014166;28;20238;-67
2022/09/16 12:02:25;;;;;;;5.47;1.43;;;;;;;;;;5014264;28;20203;-67
2022/09/16 12:04:57;;;;;;;3.83;1.20;;;;;;;;;;5015301;28;20187;-67
2022/09/16 12:07:22;;;;;;;3.33;1.30;;;;;;;;;;5013391;28;20548;-67
2022/09/16 12:09:48;;;;;;;3.43;1.27;;;;;;;;;;5013555;28;20275;-67
2022/09/16 12:12:23;;;;;;;2.50;1.10;;;;;;;;;;5014991;28;20350;-67
2022/09/16 12:14:57;;;;;;;2.33;1.30;;;;;;;;;;5014214;28;20175;-67
2022/09/16 12:17:26;;;;;;;1.37;0.97;;;;;;;;;;5014416;28;20190;-67
2022/09/16 12:20:12;;;;;;;2.43;1.30;;;;;;;;;;5012807;28;20191;-68
2022/09/16 12:22:44;;;;;;;2.17;1.60;;;;;;;;;;5013672;28;20207;-67
2022/09/16 12:25:13;;;;;;;2.37;1.17;;;;;;;;;;5014006;28;20250;-67
2022/09/16 12:27:51;;;;;;;2.80;1.20;;;;;;;;;;5014027;28;20190;-67
2022/09/16 12:30:22;;;;;;;3.30;1.47;;;;;;;;;;5013801;28;20183;-67
2022/09/16 12:32:55;;;;;;;2.43;1.00;;;;;;;;;;5012320;28;20251;-67
2022/09/16 12:35:24;;;;;;;2.77;1.27;;;;;;;;;;5029363;23;20261;-68
2022/09/16 12:37:51;;;;;;;4.03;1.30;;;;;;;;;;5012486;28;20194;-66
2022/09/16 12:40:23;;;;;;;2.73;1.40;;;;;;;;;;5012288;28;20175;-67
2022/09/16 12:43:00;;;;;;;2.83;1.40;;;;;;;;;;5013051;28;20270;-69
2022/09/16 12:45:26;;;;;;;2.87;1.50;;;;;;;;;;5013562;28;20203;-69
2022/09/16 12:48:01;;;;;;;2.93;1.27;;;;;;;;;;5012379;28;20172;-66
2022/09/16 12:50:28;;;;;;;2.37;1.27;;;;;;;;;;5012612;28;20525;-66
2022/09/16 12:52:53;;;;;;;2.20;1.53;;;;;;;;;;5013425;28;20552;-68
2022/09/16 12:55:49;;;;;;;4.23;1.40;;;;;;;;;;5013483;28;20199;-66
2022/09/16 12:58:26;;;;;;;6.43;1.53;;;;;;;;;;4977521;28;20201;-65
2022/09/16 13:00:58;;;;;;;2.53;1.23;;;;;;;;;;5013735;28;20200;-67
2022/09/16 13:03:26;;;;;;;3.43;1.40;;;;;;;;;;5012148;28;20199;-66
2022/09/16 13:05:53;;;;;;;6.13;1.53;;;;;;;;;;5012123;28;20210;-65
2022/09/16 13:08:26;;;;;;;6.47;1.37;;;;;;;;;;5013340;28;20182;-65
2022/09/16 13:10:57;;;;;;;3.17;1.40;;;;;;;;;;5013507;28;20262;-66
2022/09/16 13:13:31;;;;;;;1.90;1.30;;;;;;;;;;5012118;28;20180;-66
2022/09/16 13:15:59;;;;;;;7.20;1.57;;;;;;;;;;5013202;28;20209;-66
2022/09/16 13:18:37;;;;;;;4.20;1.70;;;;;;;;;;5013557;28;20651;-66
2022/09/16 13:21:11;;;;;;;5.73;1.80;;;;;;;;;;5013871;28;20617;-66
2022/09/16 13:23:40;;;;;;;2.87;1.47;;;;;;;;;;5013613;28;20202;-74
2022/09/16 13:26:08;;;;;;;3.77;1.60;;;;;;;;;;5013524;28;20210;-66
2022/09/16 13:28:42;;;;;;;2.17;1.40;;;;;;;;;;5013744;28;20172;-67
2022/09/16 13:31:18;;;;;;;5.60;2.33;;;;;;;;;;5013605;28;20176;-67
2022/09/16 13:33:45;;;;;;;5.87;2.97;;;;;;;;;;5013238;28;20156;-66
2022/09/16 13:36:13;;;;;;;3.73;2.40;;;;;;;;;;5013004;28;20227;-67
2022/09/16 13:38:44;;;;;;;6.90;2.50;;;;;;;;;;5011814;28;20609;-66
2022/09/16 13:41:12;;;;;;;6.83;2.50;;;;;;;;;;5013693;28;20168;-65
2022/09/16 13:43:47;;;;;;;5.67;2.60;;;;;;;;;;5011684;28;20637;-66
2022/09/16 13:46:25;;;;;;;2.37;2.00;;;;;;;;;;5012990;28;20566;-66
2022/09/16 13:48:53;;;;;;;5.47;2.00;;;;;;;;;;5012324;28;20267;-66
2022/09/16 13:51:21;;;;;;;4.30;1.90;;;;;;;;;;5011814;28;20190;-67
2022/09/16 13:53:48;;;;;;;3.37;1.70;;;;;;;;;;5015194;28;20648;-66
2022/09/16 13:56:20;;;;;;;2.60;1.57;;;;;;;;;;5016685;28;20199;-67
2022/09/16 13:59:04;;;;;;;3.37;1.30;;;;;;;;;;5016560;28;20210;-66
2022/09/16 14:01:38;;;;;;;3.20;1.33;;;;;;;;;;5015371;28;20243;-65
2022/09/16 14:04:07;;;;;;;1.83;1.30;;;;;;;;;;5016177;28;20547;-69
2022/09/16 14:06:58;;;;;;;2.73;1.10;;;;;;;;;;5015971;28;20234;-66
2022/09/16 14:09:29;;;;;;;2.30;1.07;;;;;;;;;;5016607;28;20552;-65
2022/09/16 14:12:04;;;;;;;3.60;1.37;;;;;;;;;;5015382;28;20180;-65
2022/09/16 14:14:32;;;;;;;2.20;1.10;;;;;;;;;;5015136;28;20211;-65
2022/09/16 14:17:00;;;;;;;1.73;1.10;;;;;;;;;;5015078;28;20190;-65
2022/09/16 14:19:27;;;;;;;2.07;1.20;;;;;;;;;;5016364;28;20267;-63
2022/09/16 14:22:02;;;;;;;2.47;1.00;;;;;;;;;;5016159;28;20215;-66
2022/09/16 14:24:36;;;;;;;3.03;1.20;;;;;;;;;;5017855;28;20263;-66
2022/09/16 14:27:02;;;;;;;3.00;1.30;;;;;;;;;;5018639;28;20172;-66
2022/09/16 14:29:28;;;;;;;3.67;1.23;;;;;;;;;;5015448;28;20180;-65
2022/09/16 14:31:55;;;;;;;4.27;1.40;;;;;;;;;;5016210;28;20179;-67
2022/09/16 14:34:35;;;;;;;2.87;1.40;;;;;;;;;;5016241;28;20183;-65
2022/09/16 14:37:01;;;;;;;4.07;1.40;;;;;;;;;;5016150;28;20168;-67
2022/09/16 14:39:28;;;;;;;2.27;1.20;;;;;;;;;;5014767;28;20184;-69
2022/09/16 14:41:59;;;;;;;5.23;1.53;;;;;;;;;;5015816;28;20211;-68
2022/09/16 14:44:27;;;;;;;2.73;1.40;;;;;;;;;;5016333;28;20209;-68
2022/09/16 14:47:02;;;;;;;4.33;1.60;;;;;;;;;;5014770;28;20187;-68
2022/09/16 14:49:29;;;;;;;5.30;1.50;;;;;;;;;;5015865;28;20660;-68
2022/09/16 14:51:56;;;;;;;3.53;1.60;;;;;;;;;;5014703;28;20180;-68
2022/09/16 14:54:23;;;;;;;4.90;2.00;;;;;;;;;;5016250;28;20187;-68
2022/09/16 14:57:00;;;;;;;5.97;1.80;;;;;;;;;;5015648;28;20180;-68
2022/09/16 14:59:30;;;;;;;4.30;1.90;;;;;;;;;;5015863;28;20353;-68
2022/09/16 15:01:59;;;;;;;2.70;1.67;;;;;;;;;;5015632;28;20200;-68